Harborside, ME (04642)

01:51 EDT le 30 août 2015 (GMT -0400)
Harborside | | Change Station
CLOSE
Current Station
Stations météorologiques personnelles
Location: Brooksville, ME
Altitude: 12 ft
Stations météo à proximité

Alt. 12 ft 44.35 °N, 68.82 °W | Updated 11 seconds ago

Couvert
Couvert
62.2 ° F
Paraît 62.2 ° F
N
0.0
Vent Variable Vent de SSO
Gusts 0.0 mph

Aujourd'hui
Haut(e) -- | Bas -- ° F
--% Risque de précip.
Hier
Haut(e) -- | Bas -- ° F
Precip. -- pouce
5:55 AM 7:15 PM
Pleine lune, 100% visible
Pression 30.04 pouce
Visibilité 10.0 Miles terrestres
Nuages Ciel dégagé
Point de rosée 60 ° F
Humidité 93%
Précipitations 0.00 pouce
Profondeur de la couche neigeuse Non disponible.
UV 0.0 sur 12
Pollen 7.20 sur 12
Qualité de l'air Non disponible.
Flu Activity Non disponible.
METAR KBHB 300535Z 00000KT 10SM CLR 17/17 A3004 RMK AO1
Pression 30.04 pouce
Visibilité 10.0 Miles terrestres
Nuages Ciel dégagé
Point de rosée 60 ° F
Humidité 93%
Précipitations 0.00 pouce
Profondeur de la couche neigeuse Non disponible.
UV 0.0 sur 12
Pollen 7.20 sur 12
Qualité de l'air Non disponible.
Flu Activity Non disponible.
METAR KBHB 300535Z 00000KT 10SM CLR 17/17 A3004 RMK AO1

10-Day Weather Forecast

×

Almanac

Astronomie

Aug. 30, 2015 Lever Coucher
Temps réel
Crépuscule civil
Crépuscule nautique
Crépuscule astronomique
Lune
Durée de lumière visible
Longueur du jour
Tomorrow will be .
, % of the Moon is Illuminated

Extrêmes aujourd'hui

State Highs State Lows

Community

WunderPhotos

Upload Photos

1,850,896 Photos téléchargées !

WunderBlogs® & News

Nearby

Qualité de l'air

  Qualité de l'air Indice de la qualité de l'air Polluant
Not available.

Épaisseur de neige

Station Depth Altitude

Activité sismique

Ville Distance Mag. Time & Date
Minimum magnitude displayed is 2.5.

Températures des eaux côtières

Lieu Température

Stations

Stations météo à proximité

Emplacement de la station Température Refroidissement éolien Point de rosée Humidité Vent Precip. Alt. Mise à jour Type